Lashburn, Canada
Current Conditions -  °F | °C
As of 12:00 PM on Sunday 25 Jan 2015 (Local Time) from CYLL Reporting Station
Broken Clouds Broken Clouds  
Wind Chill: 30°   Ceiling: 15000
Heat Index: 39°   Visibility: 15mi
Dew Point: 30°   Wind: 18mph
Humidity: 70%   Direction: 260°W
Pressure: 29.62"   Gusts: 25mph
Location:  53.12°N, 109.61°W
Report Text: CYLL 251800Z 26016G22KT 15SM BKN150 04/M01 A2962 RMK AC6 SLP057
Loading
Personal Weather Stations






























Interactive Weather Map New forecast layout! Learn more

10-Day Weather Forecast

Advertisements
Track Severe Weather on mobile